Time;durP1;ratioP1;P1;durP2;ratioP2;P2;SDS_P1;SDS_P2;PMS_P1;PMS_P2;Temp;Humidity;BMP_temperature;BMP_pressure;BME280_temperature;BME280_humidity;BME280_pressure;Samples;Min_cycle;Max_cycle;Signal;HPM_P1;HPM_P2
2023/09/12 00:00:42;;;;;;;84.80;52.53;;;;;;;;;;5009012;28;20186;-76
2023/09/12 00:03:08;;;;;;;92.40;54.25;;;;;;;;;;5031186;28;20274;-76
2023/09/12 00:05:33;;;;;;;88.30;53.35;;;;;;;;;;5024827;28;20270;-76
2023/09/12 00:07:59;;;;;;;80.43;50.75;;;;;;;;;;5026926;28;20198;-76
2023/09/12 00:10:25;;;;;;;90.05;54.28;;;;;;;;;;5026219;28;22569;-75
2023/09/12 00:12:50;;;;;;;90.43;54.92;;;;;;;;;;5018595;28;20195;-76
2023/09/12 00:15:15;;;;;;;96.10;55.00;;;;;;;;;;5027496;28;20205;-76
2023/09/12 00:17:41;;;;;;;88.90;56.08;;;;;;;;;;5011498;28;20692;-76
2023/09/12 00:20:08;;;;;;;92.88;54.67;;;;;;;;;;5027354;28;20205;-76
2023/09/12 00:22:33;;;;;;;89.75;53.85;;;;;;;;;;5014345;28;20179;-76
2023/09/12 00:24:58;;;;;;;102.70;57.58;;;;;;;;;;5042407;28;20193;-75
2023/09/12 00:27:24;;;;;;;96.60;55.75;;;;;;;;;;5027339;28;20194;-75
2023/09/12 00:29:49;;;;;;;92.25;56.75;;;;;;;;;;5024079;28;20201;-75
2023/09/12 00:32:15;;;;;;;96.85;55.65;;;;;;;;;;5024880;28;20222;-75
2023/09/12 00:34:40;;;;;;;100.90;56.30;;;;;;;;;;5011165;28;20742;-76
2023/09/12 00:37:06;;;;;;;86.05;53.90;;;;;;;;;;5030023;28;20196;-75
2023/09/12 00:39:31;;;;;;;87.20;54.08;;;;;;;;;;5022138;28;20712;-76
2023/09/12 00:41:56;;;;;;;94.13;56.35;;;;;;;;;;5027504;28;20232;-75
2023/09/12 00:44:22;;;;;;;99.18;57.13;;;;;;;;;;5019882;28;20254;-75
2023/09/12 00:46:49;;;;;;;97.45;57.53;;;;;;;;;;5006407;28;20194;-75
2023/09/12 00:49:16;;;;;;;91.60;54.15;;;;;;;;;;5008879;28;20178;-76
2023/09/12 00:51:43;;;;;;;102.35;57.28;;;;;;;;;;5025343;28;20245;-76
2023/09/12 00:54:09;;;;;;;89.70;55.83;;;;;;;;;;5012279;28;20187;-76
2023/09/12 00:56:35;;;;;;;111.50;61.15;;;;;;;;;;5013770;28;20201;-77
2023/09/12 00:59:02;;;;;;;98.30;57.45;;;;;;;;;;5020815;28;20209;-77
2023/09/12 01:01:27;;;;;;;98.43;58.83;;;;;;;;;;5029302;28;20182;-77
2023/09/12 01:03:54;;;;;;;83.40;53.38;;;;;;;;;;5024869;28;20263;-77
2023/09/12 01:06:23;;;;;;;90.35;56.58;;;;;;;;;;5009992;28;20252;-77
2023/09/12 01:08:49;;;;;;;93.20;54.85;;;;;;;;;;5026747;28;20182;-77
2023/09/12 01:11:16;;;;;;;94.50;56.92;;;;;;;;;;5018776;28;20213;-77
2023/09/12 01:13:41;;;;;;;87.90;55.70;;;;;;;;;;5026913;28;20190;-76
2023/09/12 01:16:06;;;;;;;85.93;50.80;;;;;;;;;;5028974;28;20197;-77
2023/09/12 01:18:33;;;;;;;91.72;57.63;;;;;;;;;;5027738;28;20206;-77
2023/09/12 01:21:29;;;;;;;88.88;56.05;;;;;;;;;;5011205;28;20532;-77
2023/09/12 01:24:28;;;;;;;87.28;51.35;;;;;;;;;;5025411;28;20216;-73
2023/09/12 01:26:54;;;;;;;94.82;56.78;;;;;;;;;;5020396;28;20553;-75
2023/09/12 01:29:22;;;;;;;83.97;53.03;;;;;;;;;;5025657;28;20218;-75
2023/09/12 01:31:50;;;;;;;86.00;52.30;;;;;;;;;;5019068;28;20245;-75
2023/09/12 01:34:16;;;;;;;70.85;46.75;;;;;;;;;;5037038;28;20186;-74
2023/09/12 01:36:42;;;;;;;88.55;52.50;;;;;;;;;;5019628;28;20216;-75
2023/09/12 01:39:08;;;;;;;91.55;53.08;;;;;;;;;;5009983;28;20313;-75
2023/09/12 01:41:39;;;;;;;87.03;51.60;;;;;;;;;;5012930;28;20305;-75
2023/09/12 01:44:06;;;;;;;86.32;50.90;;;;;;;;;;5026738;28;20250;-75
2023/09/12 01:46:34;;;;;;;79.20;49.63;;;;;;;;;;5028781;28;20273;-75
2023/09/12 01:49:00;;;;;;;85.25;50.72;;;;;;;;;;5014462;28;20350;-75
2023/09/12 01:51:27;;;;;;;81.13;49.95;;;;;;;;;;5024908;28;20214;-75
2023/09/12 01:53:54;;;;;;;78.78;48.97;;;;;;;;;;5028094;28;20197;-75
2023/09/12 01:56:20;;;;;;;88.38;49.45;;;;;;;;;;5017748;28;20198;-75
2023/09/12 01:58:46;;;;;;;83.50;49.22;;;;;;;;;;5018063;28;20372;-75
2023/09/12 02:01:11;;;;;;;82.30;48.05;;;;;;;;;;5024050;28;20265;-75
2023/09/12 02:03:37;;;;;;;87.00;49.42;;;;;;;;;;5018291;28;20190;-75
2023/09/12 02:06:02;;;;;;;82.43;49.08;;;;;;;;;;5024643;28;20194;-75
2023/09/12 02:08:27;;;;;;;77.70;47.72;;;;;;;;;;5007304;28;20186;-75
2023/09/12 02:10:53;;;;;;;75.95;47.58;;;;;;;;;;5032877;28;20669;-75
2023/09/12 02:13:18;;;;;;;80.72;48.95;;;;;;;;;;5021506;28;20273;-75
2023/09/12 02:15:44;;;;;;;75.35;47.20;;;;;;;;;;5027032;28;20182;-75
2023/09/12 02:18:09;;;;;;;75.70;46.53;;;;;;;;;;5022614;28;20213;-75
2023/09/12 02:20:38;;;;;;;75.65;46.85;;;;;;;;;;5027083;28;20652;-75
2023/09/12 02:23:04;;;;;;;87.32;46.65;;;;;;;;;;5017631;28;20267;-75
2023/09/12 02:25:29;;;;;;;79.30;46.38;;;;;;;;;;5040390;28;20195;-75
2023/09/12 02:27:54;;;;;;;76.10;45.05;;;;;;;;;;5020969;28;20183;-75
2023/09/12 02:30:20;;;;;;;78.78;47.90;;;;;;;;;;5009667;28;20194;-74
2023/09/12 02:32:45;;;;;;;80.13;45.95;;;;;;;;;;5026648;28;20217;-74
2023/09/12 02:35:11;;;;;;;85.80;46.33;;;;;;;;;;5024106;28;20187;-75
2023/09/12 02:37:36;;;;;;;73.60;45.53;;;;;;;;;;5042324;28;20191;-73
2023/09/12 02:40:05;;;;;;;72.45;43.47;;;;;;;;;;5026753;28;20182;-74
2023/09/12 02:42:30;;;;;;;79.95;45.90;;;;;;;;;;5026584;28;20274;-75
2023/09/12 02:44:55;;;;;;;73.97;45.03;;;;;;;;;;5026791;28;20619;-75
2023/09/12 02:47:21;;;;;;;77.70;46.45;;;;;;;;;;5026815;28;20259;-75
2023/09/12 02:49:46;;;;;;;78.43;46.92;;;;;;;;;;5026388;28;20209;-75
2023/09/12 02:52:11;;;;;;;86.10;48.92;;;;;;;;;;5036104;28;20214;-74
2023/09/12 02:54:37;;;;;;;78.10;46.42;;;;;;;;;;5027421;28;20191;-75
2023/09/12 02:57:02;;;;;;;69.20;42.15;;;;;;;;;;5028995;28;20247;-74
2023/09/12 02:59:29;;;;;;;71.95;40.70;;;;;;;;;;5030246;28;20213;-74
2023/09/12 03:01:54;;;;;;;62.42;40.28;;;;;;;;;;5029107;28;20264;-74
2023/09/12 03:04:20;;;;;;;70.95;43.58;;;;;;;;;;5021454;28;20202;-75
2023/09/12 03:06:45;;;;;;;76.72;42.53;;;;;;;;;;5028663;28;20218;-75
2023/09/12 03:09:11;;;;;;;67.65;39.38;;;;;;;;;;5043062;28;20277;-75
2023/09/12 03:11:36;;;;;;;65.10;40.20;;;;;;;;;;5023627;28;20215;-75
2023/09/12 03:14:02;;;;;;;63.70;40.33;;;;;;;;;;5029936;28;20506;-75
2023/09/12 03:16:27;;;;;;;76.25;45.08;;;;;;;;;;5030960;28;20190;-75
2023/09/12 03:18:53;;;;;;;89.35;50.60;;;;;;;;;;5029777;28;20206;-75
2023/09/12 03:21:18;;;;;;;91.50;50.65;;;;;;;;;;5022144;28;20193;-75
2023/09/12 03:23:43;;;;;;;90.85;49.05;;;;;;;;;;5029108;28;20556;-75
2023/09/12 03:26:09;;;;;;;94.13;51.17;;;;;;;;;;5030024;28;20269;-75
2023/09/12 03:28:34;;;;;;;99.68;54.17;;;;;;;;;;5025181;28;20187;-75
2023/09/12 03:31:08;;;;;;;98.55;54.45;;;;;;;;;;5005402;28;20677;-75
2023/09/12 03:33:33;;;;;;;101.28;52.22;;;;;;;;;;5027145;28;20191;-75
2023/09/12 03:35:59;;;;;;;92.05;52.10;;;;;;;;;;5012885;28;20187;-74
2023/09/12 03:38:24;;;;;;;92.25;51.47;;;;;;;;;;5020926;28;20195;-75
2023/09/12 03:40:49;;;;;;;114.85;56.55;;;;;;;;;;5026861;28;20244;-75
2023/09/12 03:43:15;;;;;;;118.63;60.88;;;;;;;;;;5027068;28;20255;-75
2023/09/12 03:45:40;;;;;;;118.35;59.08;;;;;;;;;;5011287;28;20222;-75
2023/09/12 03:48:06;;;;;;;109.72;57.53;;;;;;;;;;5016815;28;20205;-75
2023/09/12 03:50:31;;;;;;;118.75;59.45;;;;;;;;;;5032127;28;20197;-75
2023/09/12 03:52:56;;;;;;;159.05;63.03;;;;;;;;;;5030141;28;20182;-75
2023/09/12 03:55:22;;;;;;;119.07;57.78;;;;;;;;;;5004132;28;20561;-75
2023/09/12 03:57:47;;;;;;;151.75;58.85;;;;;;;;;;5014297;28;20198;-74
2023/09/12 04:00:13;;;;;;;205.05;61.90;;;;;;;;;;5018075;28;20199;-75
2023/09/12 04:02:38;;;;;;;169.95;58.22;;;;;;;;;;5023072;28;20183;-75
2023/09/12 04:05:04;;;;;;;145.57;59.08;;;;;;;;;;5017808;28;20186;-74
2023/09/12 04:07:29;;;;;;;240.15;62.35;;;;;;;;;;5029507;28;20258;-74
2023/09/12 04:09:55;;;;;;;150.60;59.53;;;;;;;;;;5026549;28;20230;-74
2023/09/12 04:12:20;;;;;;;265.25;65.05;;;;;;;;;;5023134;28;20557;-73
2023/09/12 04:14:46;;;;;;;160.27;59.60;;;;;;;;;;5018393;28;20194;-74
2023/09/12 04:17:11;;;;;;;107.90;54.47;;;;;;;;;;5029436;28;20225;-74
2023/09/12 04:19:36;;;;;;;119.28;54.22;;;;;;;;;;5028078;28;20193;-74
2023/09/12 04:22:04;;;;;;;92.93;52.67;;;;;;;;;;5028707;28;20248;-74
2023/09/12 04:24:29;;;;;;;170.23;54.15;;;;;;;;;;5020998;28;20190;-75
2023/09/12 04:26:55;;;;;;;94.60;50.03;;;;;;;;;;5021122;28;20244;-74
2023/09/12 04:29:20;;;;;;;128.45;50.63;;;;;;;;;;5019915;28;20179;-74
2023/09/12 04:31:45;;;;;;;149.15;51.88;;;;;;;;;;5024245;28;20242;-74
2023/09/12 04:34:11;;;;;;;91.65;46.35;;;;;;;;;;5019455;28;20203;-74
2023/09/12 04:36:36;;;;;;;161.57;54.90;;;;;;;;;;5026790;28;20186;-74
2023/09/12 04:39:02;;;;;;;136.98;52.22;;;;;;;;;;5018101;28;20225;-74
2023/09/12 04:41:27;;;;;;;112.85;50.83;;;;;;;;;;5024242;28;20194;-74
2023/09/12 04:43:52;;;;;;;122.05;52.47;;;;;;;;;;5027424;28;20230;-74
2023/09/12 04:46:18;;;;;;;116.68;52.20;;;;;;;;;;5029075;28;20186;-74
2023/09/12 04:48:43;;;;;;;141.20;53.22;;;;;;;;;;5027770;28;20290;-75
2023/09/12 04:51:09;;;;;;;106.93;51.63;;;;;;;;;;5025132;28;20206;-75
2023/09/12 04:53:35;;;;;;;107.25;50.88;;;;;;;;;;5025128;28;20197;-75
2023/09/12 04:56:03;;;;;;;122.53;52.97;;;;;;;;;;5021188;28;20355;-75
2023/09/12 04:58:29;;;;;;;91.90;48.85;;;;;;;;;;5021964;28;20209;-75
2023/09/12 05:00:55;;;;;;;120.07;51.88;;;;;;;;;;5011783;28;20182;-74
2023/09/12 05:03:21;;;;;;;109.05;52.53;;;;;;;;;;5023545;28;20904;-75
2023/09/12 05:05:50;;;;;;;141.02;54.00;;;;;;;;;;5013343;28;20198;-75
2023/09/12 05:08:15;;;;;;;120.18;54.55;;;;;;;;;;5032713;28;20232;-75
2023/09/12 05:10:43;;;;;;;94.60;50.92;;;;;;;;;;5025681;28;20210;-74
2023/09/12 05:13:08;;;;;;;93.93;52.83;;;;;;;;;;5023096;28;20193;-74
2023/09/12 05:15:34;;;;;;;97.75;53.65;;;;;;;;;;5023853;28;20190;-74
2023/09/12 05:17:59;;;;;;;99.03;52.90;;;;;;;;;;4989188;28;20563;-74
2023/09/12 05:20:24;;;;;;;107.18;54.03;;;;;;;;;;5017581;28;20195;-74
2023/09/12 05:22:50;;;;;;;108.57;55.33;;;;;;;;;;5018914;28;20600;-74
2023/09/12 05:25:15;;;;;;;109.65;54.78;;;;;;;;;;5028131;28;20194;-74
2023/09/12 05:27:40;;;;;;;108.55;56.47;;;;;;;;;;5018993;28;20195;-74
2023/09/12 05:30:06;;;;;;;108.70;56.15;;;;;;;;;;5007610;28;20194;-74
2023/09/12 05:32:32;;;;;;;107.97;55.53;;;;;;;;;;5025565;28;20218;-74
2023/09/12 05:34:57;;;;;;;159.27;59.80;;;;;;;;;;5025171;28;20229;-74
2023/09/12 05:37:23;;;;;;;126.63;58.55;;;;;;;;;;5014801;28;20645;-74
2023/09/12 05:39:48;;;;;;;96.82;53.78;;;;;;;;;;5024781;28;20285;-74
2023/09/12 05:42:20;;;;;;;111.68;56.25;;;;;;;;;;5015706;28;20195;-74
2023/09/12 05:44:46;;;;;;;99.00;55.33;;;;;;;;;;5024258;28;20242;-74
2023/09/12 05:47:11;;;;;;;98.03;55.40;;;;;;;;;;4323072;28;10000852;-74
2023/09/12 05:49:37;;;;;;;100.47;54.25;;;;;;;;;;5008886;28;20206;-74
2023/09/12 05:52:02;;;;;;;80.53;46.47;;;;;;;;;;5032221;28;20222;-74
2023/09/12 05:54:28;;;;;;;96.53;54.55;;;;;;;;;;5004622;28;20279;-74
2023/09/12 05:56:53;;;;;;;108.75;55.22;;;;;;;;;;5012265;28;20197;-74
2023/09/12 05:59:19;;;;;;;100.05;53.78;;;;;;;;;;5022792;28;20273;-74
2023/09/12 06:01:45;;;;;;;96.32;54.17;;;;;;;;;;5010843;28;20202;-74
2023/09/12 06:04:10;;;;;;;118.30;54.45;;;;;;;;;;5022932;28;20272;-74
2023/09/12 06:06:36;;;;;;;90.95;50.78;;;;;;;;;;5022574;28;20777;-72
2023/09/12 06:09:02;;;;;;;93.88;50.70;;;;;;;;;;5021969;28;20303;-74
2023/09/12 06:11:27;;;;;;;92.65;52.40;;;;;;;;;;5016323;28;20203;-74
2023/09/12 06:13:52;;;;;;;85.28;49.90;;;;;;;;;;5022125;28;20665;-74
2023/09/12 06:16:18;;;;;;;87.22;50.58;;;;;;;;;;5026502;28;20217;-74
2023/09/12 06:18:43;;;;;;;89.45;51.83;;;;;;;;;;5024629;28;20289;-74
2023/09/12 06:21:08;;;;;;;83.72;49.13;;;;;;;;;;5018469;28;20186;-74
2023/09/12 06:23:34;;;;;;;86.07;49.63;;;;;;;;;;5030160;28;20701;-74
2023/09/12 06:26:00;;;;;;;87.18;48.63;;;;;;;;;;5021738;28;20202;-74
2023/09/12 06:28:30;;;;;;;85.55;48.47;;;;;;;;;;5008000;28;20217;-74
2023/09/12 06:30:59;;;;;;;84.30;47.45;;;;;;;;;;5008672;28;20308;-74
2023/09/12 06:33:28;;;;;;;85.35;48.90;;;;;;;;;;5019718;28;20217;-74
2023/09/12 06:35:54;;;;;;;87.93;49.90;;;;;;;;;;5025750;28;20255;-74
2023/09/12 06:38:20;;;;;;;86.70;49.55;;;;;;;;;;5033998;28;20185;-74
2023/09/12 06:40:47;;;;;;;89.65;51.05;;;;;;;;;;5030302;28;20602;-75
2023/09/12 06:43:13;;;;;;;93.72;50.85;;;;;;;;;;5030749;28;20273;-74
2023/09/12 06:45:40;;;;;;;89.93;50.10;;;;;;;;;;5044554;28;20312;-73
2023/09/12 06:48:06;;;;;;;86.82;48.92;;;;;;;;;;5027968;28;20286;-73
2023/09/12 06:50:31;;;;;;;81.30;46.22;;;;;;;;;;5026241;28;20266;-74
2023/09/12 06:52:56;;;;;;;85.38;48.58;;;;;;;;;;5016680;28;20305;-74
2023/09/12 06:55:22;;;;;;;75.63;47.10;;;;;;;;;;5028425;28;20195;-74
2023/09/12 06:57:47;;;;;;;84.00;48.58;;;;;;;;;;5026769;28;20200;-74
2023/09/12 07:00:13;;;;;;;77.03;45.58;;;;;;;;;;5031477;28;20205;-74
2023/09/12 07:02:39;;;;;;;82.22;47.80;;;;;;;;;;5029465;28;20222;-74
2023/09/12 07:05:04;;;;;;;82.50;47.33;;;;;;;;;;5034548;28;20650;-74
2023/09/12 07:07:30;;;;;;;81.97;48.40;;;;;;;;;;5021631;28;20194;-74
2023/09/12 07:09:56;;;;;;;83.60;47.90;;;;;;;;;;5031413;28;20309;-74
2023/09/12 07:12:22;;;;;;;72.85;45.42;;;;;;;;;;5031256;28;20213;-73
2023/09/12 07:14:47;;;;;;;80.60;47.67;;;;;;;;;;5025950;28;20221;-74
2023/09/12 07:17:12;;;;;;;82.20;49.15;;;;;;;;;;5012717;28;20210;-73
2023/09/12 07:19:38;;;;;;;80.55;48.25;;;;;;;;;;5008278;28;20272;-73
2023/09/12 07:22:03;;;;;;;81.63;47.70;;;;;;;;;;5014677;28;20178;-74
2023/09/12 07:24:29;;;;;;;81.88;48.17;;;;;;;;;;5028197;28;20199;-74
2023/09/12 07:26:54;;;;;;;81.57;47.47;;;;;;;;;;5030694;28;20205;-72
2023/09/12 07:29:19;;;;;;;83.75;49.67;;;;;;;;;;5025646;28;20517;-72
2023/09/12 07:31:45;;;;;;;81.13;48.28;;;;;;;;;;5038255;28;20228;-73
2023/09/12 07:34:11;;;;;;;82.68;47.53;;;;;;;;;;5017360;28;20194;-74
2023/09/12 07:36:37;;;;;;;82.75;47.75;;;;;;;;;;5027213;28;20210;-72
2023/09/12 07:39:03;;;;;;;74.80;44.13;;;;;;;;;;5026339;28;20197;-72
2023/09/12 07:41:30;;;;;;;74.13;45.03;;;;;;;;;;5021377;28;20619;-73
2023/09/12 07:43:55;;;;;;;79.57;47.42;;;;;;;;;;5014499;28;20749;-72
2023/09/12 07:46:20;;;;;;;79.95;46.45;;;;;;;;;;5011848;28;20378;-73
2023/09/12 07:48:46;;;;;;;74.25;46.88;;;;;;;;;;5012642;28;20202;-72
2023/09/12 07:51:17;;;;;;;83.53;47.88;;;;;;;;;;5017434;28;20314;-73
2023/09/12 07:53:42;;;;;;;75.50;46.15;;;;;;;;;;5011020;28;20198;-72
2023/09/12 07:56:09;;;;;;;79.97;47.67;;;;;;;;;;5005621;28;20186;-73
2023/09/12 07:58:34;;;;;;;74.40;46.25;;;;;;;;;;5021050;28;20186;-73
2023/09/12 08:01:05;;;;;;;82.30;47.72;;;;;;;;;;5025761;28;20190;-73
2023/09/12 08:03:30;;;;;;;68.00;43.90;;;;;;;;;;5010288;28;20187;-73
2023/09/12 08:05:57;;;;;;;70.82;44.47;;;;;;;;;;5013883;28;20199;-73
2023/09/12 08:08:23;;;;;;;76.28;45.85;;;;;;;;;;5011961;28;20194;-72
2023/09/12 08:10:49;;;;;;;77.78;47.45;;;;;;;;;;5017707;28;20202;-73
2023/09/12 08:13:14;;;;;;;74.43;46.88;;;;;;;;;;5028228;28;20273;-73
2023/09/12 08:15:39;;;;;;;72.28;45.05;;;;;;;;;;5025945;28;20358;-73
2023/09/12 08:18:05;;;;;;;77.43;46.13;;;;;;;;;;5020125;28;20272;-73
2023/09/12 08:20:30;;;;;;;79.18;47.25;;;;;;;;;;5021735;28;20189;-73
2023/09/12 08:22:55;;;;;;;80.30;46.70;;;;;;;;;;5019698;28;20752;-73
2023/09/12 08:25:21;;;;;;;75.97;46.17;;;;;;;;;;5021748;28;20190;-73
2023/09/12 08:27:47;;;;;;;82.22;47.88;;;;;;;;;;5011125;28;20273;-73
2023/09/12 08:30:13;;;;;;;74.75;45.53;;;;;;;;;;5041531;28;20222;-74
2023/09/12 08:32:43;;;;;;;75.65;45.53;;;;;;;;;;5025962;28;20207;-74
2023/09/12 08:35:09;;;;;;;74.75;45.28;;;;;;;;;;5026635;28;20198;-73
2023/09/12 08:37:34;;;;;;;76.78;45.92;;;;;;;;;;5019667;28;20185;-73
2023/09/12 08:39:59;;;;;;;73.10;45.25;;;;;;;;;;5017297;28;20234;-73
2023/09/12 08:42:29;;;;;;;71.78;45.42;;;;;;;;;;5020392;28;20502;-73
2023/09/12 08:44:55;;;;;;;77.10;45.67;;;;;;;;;;5029068;28;20354;-74
2023/09/12 08:47:23;;;;;;;76.72;45.42;;;;;;;;;;5012442;28;20300;-74
2023/09/12 08:49:49;;;;;;;72.75;45.22;;;;;;;;;;5010103;28;20229;-74
2023/09/12 08:52:14;;;;;;;68.65;44.53;;;;;;;;;;5021212;28;20222;-73
2023/09/12 08:54:40;;;;;;;75.43;46.10;;;;;;;;;;5015473;28;20194;-73
2023/09/12 08:57:07;;;;;;;71.13;44.80;;;;;;;;;;5033019;28;20566;-73
2023/09/12 08:59:34;;;;;;;69.63;44.22;;;;;;;;;;5026985;28;20218;-73
2023/09/12 09:02:00;;;;;;;69.45;42.65;;;;;;;;;;5035417;28;20178;-73
2023/09/12 09:04:29;;;;;;;65.82;42.08;;;;;;;;;;5036276;28;20823;-73
2023/09/12 09:06:57;;;;;;;72.85;44.58;;;;;;;;;;5021989;28;20198;-74
2023/09/12 09:09:23;;;;;;;64.55;41.70;;;;;;;;;;5014579;28;20201;-74
2023/09/12 09:11:49;;;;;;;64.53;40.67;;;;;;;;;;5007555;28;20210;-74
2023/09/12 09:14:15;;;;;;;66.18;41.85;;;;;;;;;;5012083;28;20201;-74
2023/09/12 09:16:40;;;;;;;64.43;40.33;;;;;;;;;;5016638;28;20190;-73
2023/09/12 09:19:09;;;;;;;66.60;41.15;;;;;;;;;;5018576;28;20201;-74
2023/09/12 09:21:36;;;;;;;63.05;41.67;;;;;;;;;;5025412;28;20185;-73
2023/09/12 09:24:07;;;;;;;59.67;40.95;;;;;;;;;;5018806;28;20242;-73
2023/09/12 09:26:51;;;;;;;65.28;40.88;;;;;;;;;;5031878;28;20198;-74
2023/09/12 09:29:18;;;;;;;65.18;41.80;;;;;;;;;;5012236;28;20238;-73
2023/09/12 09:31:46;;;;;;;65.72;41.97;;;;;;;;;;5017951;28;20221;-73
2023/09/12 09:34:17;;;;;;;62.15;40.38;;;;;;;;;;5014039;28;20238;-73
2023/09/12 09:36:44;;;;;;;65.05;39.97;;;;;;;;;;5014264;28;20283;-73
2023/09/12 09:39:10;;;;;;;60.22;40.88;;;;;;;;;;5016592;28;20255;-73
2023/09/12 09:41:37;;;;;;;64.05;40.75;;;;;;;;;;5026292;28;20182;-73
2023/09/12 09:44:05;;;;;;;58.85;38.63;;;;;;;;;;5020456;28;20252;-72
2023/09/12 09:46:31;;;;;;;59.58;37.75;;;;;;;;;;5026681;28;20191;-72
2023/09/12 09:48:58;;;;;;;53.80;35.17;;;;;;;;;;5024764;28;20248;-72
2023/09/12 09:51:25;;;;;;;46.42;32.70;;;;;;;;;;5027009;28;20210;-73
2023/09/12 09:53:57;;;;;;;44.55;30.90;;;;;;;;;;5028481;28;20190;-72
2023/09/12 09:56:25;;;;;;;43.85;30.85;;;;;;;;;;5024825;28;20189;-72
2023/09/12 09:58:55;;;;;;;44.63;31.67;;;;;;;;;;5018119;28;20659;-72
2023/09/12 10:01:28;;;;;;;44.90;31.15;;;;;;;;;;5023646;28;20193;-73
2023/09/12 10:03:59;;;;;;;44.40;30.85;;;;;;;;;;5008918;28;20332;-73
2023/09/12 10:06:27;;;;;;;40.92;30.23;;;;;;;;;;5015998;28;20241;-73
2023/09/12 10:08:53;;;;;;;39.33;29.67;;;;;;;;;;5015858;28;20672;-73
2023/09/12 10:11:22;;;;;;;40.13;29.23;;;;;;;;;;5031381;28;20203;-73
2023/09/12 10:14:07;;;;;;;40.20;29.38;;;;;;;;;;5009662;28;20626;-73
2023/09/12 10:16:42;;;;;;;37.00;27.63;;;;;;;;;;5013442;28;20327;-73
2023/09/12 10:19:57;;;;;;;36.70;26.05;;;;;;;;;;5019114;28;20191;-72
2023/09/12 10:22:27;;;;;;;33.75;24.70;;;;;;;;;;5018614;28;20573;-73
2023/09/12 10:24:54;;;;;;;37.00;26.52;;;;;;;;;;5036684;28;20570;-73
2023/09/12 10:27:22;;;;;;;36.25;26.08;;;;;;;;;;5017858;28;20248;-73
2023/09/12 10:29:49;;;;;;;38.45;26.65;;;;;;;;;;5014463;28;20387;-71
2023/09/12 10:32:16;;;;;;;34.88;24.38;;;;;;;;;;5003415;28;20257;-73
2023/09/12 10:34:47;;;;;;;40.85;26.23;;;;;;;;;;5025722;28;20269;-73
2023/09/12 10:37:19;;;;;;;33.33;24.17;;;;;;;;;;5025678;28;20265;-72
2023/09/12 10:39:46;;;;;;;34.65;25.60;;;;;;;;;;5010321;28;20194;-73
2023/09/12 10:42:13;;;;;;;30.00;22.08;;;;;;;;;;5014690;28;20193;-71
2023/09/12 10:44:38;;;;;;;34.10;23.45;;;;;;;;;;5012165;28;20227;-72
2023/09/12 10:47:05;;;;;;;25.65;20.30;;;;;;;;;;5021716;28;20213;-72
2023/09/12 10:49:30;;;;;;;28.70;20.98;;;;;;;;;;5012500;28;20611;-74
2023/09/12 10:51:57;;;;;;;29.33;21.92;;;;;;;;;;5023971;28;20249;-73
2023/09/12 10:54:39;;;;;;;30.08;23.67;;;;;;;;;;5016170;28;20274;-71
2023/09/12 10:57:13;;;;;;;27.77;21.35;;;;;;;;;;5019478;28;20195;-72
2023/09/12 11:00:04;;;;;;;29.35;23.08;;;;;;;;;;5010089;28;20201;-72
2023/09/12 11:02:35;;;;;;;27.67;21.60;;;;;;;;;;5014897;28;20720;-72
2023/09/12 11:05:04;;;;;;;28.98;23.52;;;;;;;;;;5021245;28;20248;-72
2023/09/12 11:07:36;;;;;;;29.33;23.05;;;;;;;;;;5025099;28;20183;-73
2023/09/12 11:10:18;;;;;;;32.17;23.17;;;;;;;;;;5012289;28;20198;-73
2023/09/12 11:12:44;;;;;;;24.58;20.80;;;;;;;;;;5024161;28;20321;-73
2023/09/12 11:15:10;;;;;;;24.92;20.73;;;;;;;;;;5024164;28;20345;-73
2023/09/12 11:17:49;;;;;;;22.90;19.23;;;;;;;;;;5031820;28;20307;-73
2023/09/12 11:20:15;;;;;;;26.85;20.23;;;;;;;;;;5015357;28;20564;-73
2023/09/12 11:22:46;;;;;;;23.55;18.92;;;;;;;;;;5027142;28;20194;-73
2023/09/12 11:25:25;;;;;;;24.35;18.70;;;;;;;;;;4999531;28;20187;-73
2023/09/12 11:27:50;;;;;;;23.73;18.67;;;;;;;;;;5019968;28;20187;-73
2023/09/12 11:30:17;;;;;;;22.90;18.27;;;;;;;;;;5019125;28;20304;-73
2023/09/12 11:32:45;;;;;;;22.35;18.08;;;;;;;;;;5024012;28;20748;-73
2023/09/12 11:35:11;;;;;;;22.45;17.17;;;;;;;;;;5033038;28;20217;-73
2023/09/12 11:37:39;;;;;;;24.02;18.10;;;;;;;;;;5010799;28;20215;-71
2023/09/12 11:40:13;;;;;;;20.75;16.73;;;;;;;;;;5025660;28;20213;-71
2023/09/12 11:42:43;;;;;;;21.00;17.08;;;;;;;;;;5014229;28;20194;-73
2023/09/12 11:45:11;;;;;;;22.20;17.42;;;;;;;;;;5016842;28;20256;-73
2023/09/12 11:47:43;;;;;;;23.90;17.25;;;;;;;;;;5020345;28;20190;-73
2023/09/12 11:50:28;;;;;;;21.05;16.08;;;;;;;;;;5013694;28;20215;-72
2023/09/12 11:53:10;;;;;;;23.70;16.58;;;;;;;;;;5031600;28;20241;-73
2023/09/12 11:55:53;;;;;;;19.95;16.40;;;;;;;;;;5017419;28;20202;-73
2023/09/12 11:58:19;;;;;;;21.20;16.67;;;;;;;;;;5019229;28;20270;-73
2023/09/12 12:00:47;;;;;;;16.85;14.82;;;;;;;;;;5013979;28;20198;-73
2023/09/12 12:03:12;;;;;;;18.63;14.90;;;;;;;;;;5017223;28;20186;-73
2023/09/12 12:05:40;;;;;;;19.00;15.85;;;;;;;;;;5030028;28;20893;-73
2023/09/12 12:08:07;;;;;;;18.63;15.40;;;;;;;;;;5016020;28;20182;-73
2023/09/12 12:10:32;;;;;;;18.67;14.57;;;;;;;;;;5036475;28;20191;-73
2023/09/12 12:12:58;;;;;;;19.27;15.32;;;;;;;;;;5016453;28;20592;-73
2023/09/12 12:15:23;;;;;;;21.75;14.68;;;;;;;;;;5025546;28;20249;-73
2023/09/12 12:17:53;;;;;;;18.52;15.52;;;;;;;;;;5026874;28;20292;-74
2023/09/12 12:20:19;;;;;;;20.70;16.23;;;;;;;;;;5023154;28;20193;-73
2023/09/12 12:22:44;;;;;;;18.95;14.95;;;;;;;;;;5015931;28;20273;-73
2023/09/12 12:25:11;;;;;;;18.15;13.23;;;;;;;;;;5010364;28;20245;-73
2023/09/12 12:27:38;;;;;;;19.27;15.40;;;;;;;;;;5006507;28;20710;-73
2023/09/12 12:30:09;;;;;;;18.35;14.43;;;;;;;;;;5022998;28;20637;-74
2023/09/12 12:32:37;;;;;;;19.40;15.13;;;;;;;;;;5024576;28;20209;-74
2023/09/12 12:35:02;;;;;;;18.27;14.35;;;;;;;;;;5020205;28;20215;-74
2023/09/12 12:37:31;;;;;;;16.15;14.23;;;;;;;;;;4328752;28;10000730;-74
2023/09/12 12:39:57;;;;;;;19.05;13.73;;;;;;;;;;5036567;28;20285;-74
2023/09/12 12:42:24;;;;;;;17.88;14.43;;;;;;;;;;5027022;28;20673;-74
2023/09/12 12:44:56;;;;;;;20.02;14.70;;;;;;;;;;5024424;28;20230;-74
2023/09/12 12:47:22;;;;;;;17.63;14.10;;;;;;;;;;5020746;28;20616;-73
2023/09/12 12:49:52;;;;;;;17.88;12.98;;;;;;;;;;5015202;28;20194;-74
2023/09/12 12:52:22;;;;;;;15.32;12.23;;;;;;;;;;5018036;28;22587;-74
2023/09/12 12:54:49;;;;;;;14.85;12.30;;;;;;;;;;5021282;28;20221;-73
2023/09/12 12:57:18;;;;;;;17.02;12.25;;;;;;;;;;5017679;28;20191;-73
2023/09/12 12:59:50;;;;;;;17.90;12.68;;;;;;;;;;5023246;28;20673;-73
2023/09/12 13:02:16;;;;;;;14.68;12.02;;;;;;;;;;5014322;28;20186;-74
2023/09/12 13:04:42;;;;;;;14.60;12.90;;;;;;;;;;5008041;28;20201;-73
2023/09/12 13:07:07;;;;;;;18.70;14.57;;;;;;;;;;5012760;28;20248;-73
2023/09/12 13:09:33;;;;;;;16.00;12.25;;;;;;;;;;5020957;28;20190;-74
2023/09/12 13:11:59;;;;;;;14.60;12.25;;;;;;;;;;5021183;28;20215;-74
2023/09/12 13:14:30;;;;;;;16.48;12.48;;;;;;;;;;5016093;28;20290;-74
2023/09/12 13:16:56;;;;;;;14.80;11.98;;;;;;;;;;5030966;28;20197;-74
2023/09/12 13:19:22;;;;;;;16.33;12.48;;;;;;;;;;5025932;28;20185;-74
2023/09/12 13:21:47;;;;;;;16.73;13.13;;;;;;;;;;5019773;28;20274;-75
2023/09/12 13:24:13;;;;;;;16.27;11.55;;;;;;;;;;5019845;28;20516;-74
2023/09/12 13:26:39;;;;;;;18.70;13.45;;;;;;;;;;5027750;28;20655;-74
2023/09/12 13:29:05;;;;;;;18.50;13.13;;;;;;;;;;5013804;28;20190;-74
2023/09/12 13:31:31;;;;;;;16.67;12.18;;;;;;;;;;5012756;28;20517;-74
2023/09/12 13:33:57;;;;;;;18.85;13.13;;;;;;;;;;5020672;28;20630;-74
2023/09/12 13:36:23;;;;;;;16.42;11.80;;;;;;;;;;5027411;28;20182;-74
2023/09/12 13:38:51;;;;;;;14.93;13.35;;;;;;;;;;5023076;28;20197;-74
2023/09/12 13:41:18;;;;;;;17.15;12.30;;;;;;;;;;5026926;28;20178;-74
2023/09/12 13:43:46;;;;;;;13.63;12.10;;;;;;;;;;5019695;28;20258;-74
2023/09/12 13:46:11;;;;;;;14.32;12.00;;;;;;;;;;5018855;28;20273;-74
2023/09/12 13:48:37;;;;;;;12.43;10.60;;;;;;;;;;5009114;28;20285;-74
2023/09/12 13:51:03;;;;;;;13.13;10.48;;;;;;;;;;5029217;28;20273;-74
2023/09/12 13:53:28;;;;;;;13.77;10.48;;;;;;;;;;5028132;28;20232;-74
2023/09/12 13:55:56;;;;;;;15.48;11.13;;;;;;;;;;5028306;28;20198;-74
2023/09/12 13:58:22;;;;;;;12.98;10.73;;;;;;;;;;5037861;28;20190;-74
2023/09/12 14:00:48;;;;;;;12.48;10.15;;;;;;;;;;5020409;28;20194;-74
2023/09/12 14:03:14;;;;;;;12.68;10.90;;;;;;;;;;5016147;28;20290;-74
2023/09/12 14:05:39;;;;;;;11.45;10.18;;;;;;;;;;5000755;28;20282;-74
2023/09/12 14:08:05;;;;;;;11.00;9.13;;;;;;;;;;5027819;28;20186;-73
2023/09/12 14:10:30;;;;;;;11.90;9.07;;;;;;;;;;5015166;28;20211;-73
2023/09/12 14:12:55;;;;;;;13.50;9.80;;;;;;;;;;5022071;28;20286;-73
2023/09/12 14:15:21;;;;;;;11.82;9.60;;;;;;;;;;5023612;28;20290;-73